Atb Freeport — WDD6704 — position and weather

sailwx.info

Track history (hours):
 
Tides and Currents Weather Stations Pressure Air Temp Water Temp Dewpoint Dewpoint Depression Visibility Wind Speed Wind Dir Waves Ship Positions

Atb Freeport

Owner: US Shipping Corp, Edison, NJ. More information available from US FCC via Universal Licensing System and Coast Guard Vessel Documentation Center.

Last reported at 2018-Jun-19 07:19 UTC. Time now 2018-Jun-19 10:42 UTC.
Position N 29°38' W 093°16'.

Length 184 m; draft 8.5 m.

Type: . MMSI: 367690000.

Date/timePositionNaut miles runAvg speedWind from/ knotsBaromVisibWave heightAir tempDewpointWater temp
2018-Jun-19 07:19N 29°38' W 093°16'0 0.0
2018-Jun-19 06:47N 29°38' W 093°16'0 0.0
2018-Jun-19 06:29N 29°38' W 093°16'0 0.0
2018-Jun-19 05:56N 29°38' W 093°16'0 0.0
2018-Jun-19 01:32N 29°38' W 093°16'0 0.0
2018-Jun-17 05:48N 29°38' W 093°16'8 0.3
2018-Jun-16 04:38N 29°35' W 093°25'313.4
2018-Jun-16 04:24N 29°35' W 093°28'612.7
2018-Jun-16 03:57N 29°34' W 093°35'613.5
2018-Jun-16 03:31N 29°32' W 093°42'713.4
2018-Jun-16 03:00N 29°31' W 093°49'713.3
2018-Jun-16 02:30N 29°29' W 093°56'613.1
2018-Jun-16 02:00N 29°25' W 094°02'713.2
2018-Jun-16 01:30N 29°20' W 094°08'913.0
2018-Jun-16 00:51N 29°14' W 094°15'1612.8
2018-Jun-15 23:36N 29°05' W 094°30'312.8
2018-Jun-15 23:22N 29°03' W 094°32'512.8
2018-Jun-15 23:00N 29°01' W 094°37'713.0
2018-Jun-15 22:30N 28°57' W 094°43'713.2
2018-Jun-15 21:59N 28°53' W 094°50'613.2
2018-Jun-15 21:31N 28°50' W 094°56'  
2018-Jun-09 12:38N 25°23' W 080°02'110.7
2018-Jun-09 12:30N 25°24' W 080°02'610.9
2018-Jun-09 12:00N 25°30' W 080°02'611.2
2018-Jun-09 11:30N 25°36' W 080°01'611.2
2018-Jun-09 11:00N 25°41' W 080°01'510.8
2018-Jun-09 10:30N 25°46' W 080°01'510.0
2018-Jun-09 10:00N 25°51' W 080°00'5 9.4
2018-Jun-09 09:30N 25°56' W 080°00'4 8.9
2018-Jun-09 09:00N 26°01' W 080°00'4 8.7
2018-Jun-09 08:31N 26°05' W 080°00'4 8.4
2018-Jun-09 08:01N 26°09' W 079°60'4 8.2
2018-Jun-09 07:30N 26°13' W 079°60'  
Track history (hours):
 
Tides and Currents Weather Stations Pressure Air Temp Water Temp Dewpoint Dewpoint Depression Visibility Wind Speed Wind Dir Waves Ship Positions

Atb Freeport

Owner: US Shipping Corp, Edison, NJ. More information available from US FCC via Universal Licensing System and Coast Guard Vessel Documentation Center.

Last reported at 2018-Jun-19 07:19 UTC. Time now 2018-Jun-19 10:42 UTC.
Position N 29°38' W 093°16'.

Length 184 m; draft 8.5 m.

Type: . MMSI: 367690000.

Date/timePositionNaut miles runAvg speedWind from/ knotsBaromVisibWave heightAir tempDewpointWater temp
2018-Jun-19 07:19N 29°38' W 093°16'0 0.0
2018-Jun-19 06:47N 29°38' W 093°16'0 0.0
2018-Jun-19 06:29N 29°38' W 093°16'0 0.0
2018-Jun-19 05:56N 29°38' W 093°16'0 0.0
2018-Jun-19 01:32N 29°38' W 093°16'0 0.0
2018-Jun-17 05:48N 29°38' W 093°16'8 0.3
2018-Jun-16 04:38N 29°35' W 093°25'313.4
2018-Jun-16 04:24N 29°35' W 093°28'612.7
2018-Jun-16 03:57N 29°34' W 093°35'613.5
2018-Jun-16 03:31N 29°32' W 093°42'713.4
2018-Jun-16 03:00N 29°31' W 093°49'713.3
2018-Jun-16 02:30N 29°29' W 093°56'613.1
2018-Jun-16 02:00N 29°25' W 094°02'713.2
2018-Jun-16 01:30N 29°20' W 094°08'913.0
2018-Jun-16 00:51N 29°14' W 094°15'1612.8
2018-Jun-15 23:36N 29°05' W 094°30'312.8
2018-Jun-15 23:22N 29°03' W 094°32'512.8
2018-Jun-15 23:00N 29°01' W 094°37'713.0
2018-Jun-15 22:30N 28°57' W 094°43'713.2
2018-Jun-15 21:59N 28°53' W 094°50'613.2
2018-Jun-15 21:31N 28°50' W 094°56'  
2018-Jun-09 12:38N 25°23' W 080°02'110.7
2018-Jun-09 12:30N 25°24' W 080°02'610.9
2018-Jun-09 12:00N 25°30' W 080°02'611.2
2018-Jun-09 11:30N 25°36' W 080°01'611.2
2018-Jun-09 11:00N 25°41' W 080°01'510.8
2018-Jun-09 10:30N 25°46' W 080°01'510.0
2018-Jun-09 10:00N 25°51' W 080°00'5 9.4
2018-Jun-09 09:30N 25°56' W 080°00'4 8.9
2018-Jun-09 09:00N 26°01' W 080°00'4 8.7
2018-Jun-09 08:31N 26°05' W 080°00'4 8.4
2018-Jun-09 08:01N 26°09' W 079°60'4 8.2
2018-Jun-09 07:30N 26°13' W 079°60'  

Dump ship's entire track history